sensor_id;sensor_type;location;lat;lon;timestamp;P1;durP1;ratioP1;P2;durP2;ratioP2
35893;SDS011;21994;48.204;16.516;2023-07-31T11:03:02;1.48;;;0.73;;
35893;SDS011;21994;48.204;16.516;2023-07-31T11:05:49;1.08;;;0.73;;
35893;SDS011;21994;48.204;16.516;2023-07-31T11:08:22;0.47;;;0.38;;
35893;SDS011;21994;48.204;16.516;2023-07-31T11:15:59;2.30;;;0.40;;
35893;SDS011;21994;48.204;16.516;2023-07-31T11:18:26;2.97;;;0.73;;
35893;SDS011;21994;48.204;16.516;2023-07-31T11:20:52;1.92;;;0.70;;
35893;SDS011;21994;48.204;16.516;2023-07-31T11:23:19;2.50;;;0.60;;
35893;SDS011;21994;48.204;16.516;2023-07-31T11:25:46;2.13;;;0.68;;
35893;SDS011;21994;48.204;16.516;2023-07-31T11:28:13;2.10;;;0.65;;
35893;SDS011;21994;48.204;16.516;2023-07-31T11:30:41;1.02;;;0.57;;
35893;SDS011;21994;48.204;16.516;2023-07-31T11:33:09;1.92;;;1.00;;
35893;SDS011;21994;48.204;16.516;2023-07-31T11:35:41;2.10;;;0.70;;
35893;SDS011;21994;48.204;16.516;2023-07-31T11:38:27;1.00;;;0.50;;
35893;SDS011;21994;48.204;16.516;2023-07-31T11:40:56;1.00;;;0.60;;
35893;SDS011;21994;48.204;16.516;2023-07-31T11:43:25;2.00;;;0.68;;
35893;SDS011;21994;48.204;16.516;2023-07-31T11:45:53;1.75;;;0.57;;
35893;SDS011;21994;48.204;16.516;2023-07-31T11:48:25;1.38;;;0.68;;
35893;SDS011;21994;48.204;16.516;2023-07-31T11:50:53;1.65;;;0.50;;
35893;SDS011;21994;48.204;16.516;2023-07-31T11:56:14;1.58;;;0.60;;
35893;SDS011;21994;48.204;16.516;2023-07-31T11:58:43;1.98;;;0.60;;
35893;SDS011;21994;48.204;16.516;2023-07-31T12:01:13;1.52;;;0.50;;
35893;SDS011;21994;48.204;16.516;2023-07-31T12:03:41;1.77;;;0.80;;
35893;SDS011;21994;48.204;16.516;2023-07-31T12:06:08;1.55;;;0.60;;
35893;SDS011;21994;48.204;16.516;2023-07-31T12:08:34;1.10;;;0.50;;
35893;SDS011;21994;48.204;16.516;2023-07-31T12:11:02;0.95;;;0.50;;
35893;SDS011;21994;48.204;16.516;2023-07-31T12:13:31;1.70;;;0.50;;
35893;SDS011;21994;48.204;16.516;2023-07-31T12:15:58;0.60;;;0.40;;
35893;SDS011;21994;48.204;16.516;2023-07-31T12:18:28;0.80;;;0.45;;
35893;SDS011;21994;48.204;16.516;2023-07-31T12:23:30;2.33;;;0.73;;
35893;SDS011;21994;48.204;16.516;2023-07-31T12:26:13;0.63;;;0.40;;
35893;SDS011;21994;48.204;16.516;2023-07-31T12:28:42;3.00;;;1.02;;
35893;SDS011;21994;48.204;16.516;2023-07-31T12:31:16;2.58;;;0.82;;
35893;SDS011;21994;48.204;16.516;2023-07-31T12:33:47;1.52;;;0.65;;
35893;SDS011;21994;48.204;16.516;2023-07-31T12:36:16;0.85;;;0.50;;
35893;SDS011;21994;48.204;16.516;2023-07-31T12:38:46;2.38;;;0.40;;
35893;SDS011;21994;48.204;16.516;2023-07-31T12:41:12;3.15;;;0.88;;
35893;SDS011;21994;48.204;16.516;2023-07-31T12:43:39;1.25;;;0.60;;
35893;SDS011;21994;48.204;16.516;2023-07-31T12:46:07;1.38;;;0.65;;
35893;SDS011;21994;48.204;16.516;2023-07-31T12:48:34;1.67;;;0.68;;
35893;SDS011;21994;48.204;16.516;2023-07-31T12:51:00;1.33;;;0.75;;
35893;SDS011;21994;48.204;16.516;2023-07-31T12:53:27;0.80;;;0.47;;
35893;SDS011;21994;48.204;16.516;2023-07-31T12:55:54;3.67;;;0.50;;
35893;SDS011;21994;48.204;16.516;2023-07-31T12:58:21;0.68;;;0.40;;
35893;SDS011;21994;48.204;16.516;2023-07-31T13:00:47;0.63;;;0.38;;
35893;SDS011;21994;48.204;16.516;2023-07-31T13:03:13;1.05;;;0.40;;
35893;SDS011;21994;48.204;16.516;2023-07-31T13:05:39;1.38;;;0.40;;
35893;SDS011;21994;48.204;16.516;2023-07-31T13:08:05;3.00;;;0.70;;
35893;SDS011;21994;48.204;16.516;2023-07-31T13:10:31;1.00;;;0.32;;
35893;SDS011;21994;48.204;16.516;2023-07-31T13:12:57;0.80;;;0.70;;
35893;SDS011;21994;48.204;16.516;2023-07-31T13:15:23;1.10;;;0.47;;
35893;SDS011;21994;48.204;16.516;2023-07-31T13:17:49;0.90;;;0.65;;
35893;SDS011;21994;48.204;16.516;2023-07-31T13:20:15;2.20;;;0.95;;
35893;SDS011;21994;48.204;16.516;2023-07-31T13:22:40;1.13;;;0.57;;
35893;SDS011;21994;48.204;16.516;2023-07-31T13:25:07;1.33;;;0.80;;
35893;SDS011;21994;48.204;16.516;2023-07-31T13:27:34;1.55;;;0.77;;
35893;SDS011;21994;48.204;16.516;2023-07-31T13:30:00;1.90;;;0.93;;
35893;SDS011;21994;48.204;16.516;2023-07-31T13:32:27;1.35;;;0.50;;
35893;SDS011;21994;48.204;16.516;2023-07-31T13:34:52;1.20;;;0.43;;
35893;SDS011;21994;48.204;16.516;2023-07-31T13:37:19;1.15;;;0.65;;
35893;SDS011;21994;48.204;16.516;2023-07-31T13:39:44;2.47;;;0.80;;
35893;SDS011;21994;48.204;16.516;2023-07-31T13:42:10;6.47;;;0.95;;
35893;SDS011;21994;48.204;16.516;2023-07-31T13:44:37;3.10;;;0.60;;
35893;SDS011;21994;48.204;16.516;2023-07-31T13:47:04;1.65;;;0.60;;
35893;SDS011;21994;48.204;16.516;2023-07-31T13:49:31;0.85;;;0.60;;
35893;SDS011;21994;48.204;16.516;2023-07-31T13:51:58;2.05;;;0.57;;
35893;SDS011;21994;48.204;16.516;2023-07-31T13:54:24;1.33;;;0.40;;
35893;SDS011;21994;48.204;16.516;2023-07-31T13:56:51;3.13;;;0.95;;
35893;SDS011;21994;48.204;16.516;2023-07-31T13:59:18;1.17;;;0.60;;
35893;SDS011;21994;48.204;16.516;2023-07-31T14:01:44;1.17;;;0.60;;
35893;SDS011;21994;48.204;16.516;2023-07-31T14:04:10;0.75;;;0.47;;
35893;SDS011;21994;48.204;16.516;2023-07-31T14:06:37;1.90;;;0.63;;
35893;SDS011;21994;48.204;16.516;2023-07-31T14:09:03;2.28;;;0.82;;
35893;SDS011;21994;48.204;16.516;2023-07-31T14:11:32;0.93;;;0.70;;
35893;SDS011;21994;48.204;16.516;2023-07-31T14:13:58;2.30;;;0.57;;
35893;SDS011;21994;48.204;16.516;2023-07-31T14:16:24;1.65;;;0.55;;
35893;SDS011;21994;48.204;16.516;2023-07-31T14:18:50;1.50;;;0.60;;
35893;SDS011;21994;48.204;16.516;2023-07-31T14:21:18;1.58;;;0.60;;
35893;SDS011;21994;48.204;16.516;2023-07-31T14:23:44;2.72;;;0.50;;
35893;SDS011;21994;48.204;16.516;2023-07-31T14:26:10;1.70;;;0.63;;
35893;SDS011;21994;48.204;16.516;2023-07-31T14:28:36;1.95;;;0.95;;
35893;SDS011;21994;48.204;16.516;2023-07-31T14:31:03;0.95;;;0.75;;
35893;SDS011;21994;48.204;16.516;2023-07-31T14:33:28;4.00;;;0.63;;
35893;SDS011;21994;48.204;16.516;2023-07-31T14:35:54;2.50;;;0.80;;
35893;SDS011;21994;48.204;16.516;2023-07-31T14:38:20;2.35;;;0.70;;
35893;SDS011;21994;48.204;16.516;2023-07-31T14:40:46;1.23;;;0.70;;
35893;SDS011;21994;48.204;16.516;2023-07-31T14:43:12;0.98;;;0.70;;
35893;SDS011;21994;48.204;16.516;2023-07-31T14:45:38;4.28;;;0.70;;
35893;SDS011;21994;48.204;16.516;2023-07-31T14:48:04;2.30;;;1.00;;
35893;SDS011;21994;48.204;16.516;2023-07-31T14:50:30;2.28;;;0.68;;
35893;SDS011;21994;48.204;16.516;2023-07-31T14:52:56;2.47;;;0.80;;
35893;SDS011;21994;48.204;16.516;2023-07-31T14:55:22;1.60;;;0.60;;
35893;SDS011;21994;48.204;16.516;2023-07-31T14:57:48;0.93;;;0.63;;
35893;SDS011;21994;48.204;16.516;2023-07-31T15:00:14;1.42;;;0.70;;
35893;SDS011;21994;48.204;16.516;2023-07-31T15:02:40;1.38;;;0.73;;
35893;SDS011;21994;48.204;16.516;2023-07-31T15:05:07;1.27;;;0.60;;
35893;SDS011;21994;48.204;16.516;2023-07-31T15:07:34;0.98;;;0.50;;
35893;SDS011;21994;48.204;16.516;2023-07-31T15:10:01;1.30;;;0.77;;
35893;SDS011;21994;48.204;16.516;2023-07-31T15:12:27;0.70;;;0.50;;
35893;SDS011;21994;48.204;16.516;2023-07-31T15:14:54;2.17;;;0.95;;
35893;SDS011;21994;48.204;16.516;2023-07-31T15:17:19;2.97;;;0.63;;
35893;SDS011;21994;48.204;16.516;2023-07-31T15:19:45;1.30;;;0.70;;
35893;SDS011;21994;48.204;16.516;2023-07-31T15:22:11;1.42;;;0.50;;
35893;SDS011;21994;48.204;16.516;2023-07-31T15:24:37;1.13;;;0.60;;
35893;SDS011;21994;48.204;16.516;2023-07-31T15:27:03;1.63;;;0.60;;
35893;SDS011;21994;48.204;16.516;2023-07-31T15:29:29;2.85;;;0.80;;
35893;SDS011;21994;48.204;16.516;2023-07-31T15:31:55;1.77;;;0.57;;
35893;SDS011;21994;48.204;16.516;2023-07-31T15:34:22;1.30;;;0.90;;
35893;SDS011;21994;48.204;16.516;2023-07-31T15:36:48;0.75;;;0.60;;
35893;SDS011;21994;48.204;16.516;2023-07-31T15:39:14;1.42;;;0.90;;
35893;SDS011;21994;48.204;16.516;2023-07-31T15:41:40;1.13;;;0.70;;
35893;SDS011;21994;48.204;16.516;2023-07-31T15:44:06;0.68;;;0.40;;
35893;SDS011;21994;48.204;16.516;2023-07-31T15:46:33;2.70;;;1.02;;
35893;SDS011;21994;48.204;16.516;2023-07-31T15:48:59;0.75;;;0.60;;
35893;SDS011;21994;48.204;16.516;2023-07-31T15:51:25;1.23;;;0.70;;
35893;SDS011;21994;48.204;16.516;2023-07-31T15:53:53;0.90;;;0.50;;
35893;SDS011;21994;48.204;16.516;2023-07-31T15:56:19;2.88;;;0.82;;
35893;SDS011;21994;48.204;16.516;2023-07-31T15:58:45;1.45;;;0.35;;
35893;SDS011;21994;48.204;16.516;2023-07-31T16:01:11;1.05;;;0.40;;
35893;SDS011;21994;48.204;16.516;2023-07-31T16:03:37;2.10;;;0.68;;
35893;SDS011;21994;48.204;16.516;2023-07-31T16:06:04;1.88;;;0.80;;
35893;SDS011;21994;48.204;16.516;2023-07-31T16:08:30;1.45;;;0.70;;
35893;SDS011;21994;48.204;16.516;2023-07-31T16:10:56;1.88;;;0.60;;
35893;SDS011;21994;48.204;16.516;2023-07-31T16:13:22;2.03;;;0.65;;
35893;SDS011;21994;48.204;16.516;2023-07-31T16:15:48;0.45;;;0.43;;
35893;SDS011;21994;48.204;16.516;2023-07-31T16:18:13;0.82;;;0.63;;
35893;SDS011;21994;48.204;16.516;2023-07-31T16:20:39;1.42;;;0.52;;
35893;SDS011;21994;48.204;16.516;2023-07-31T16:23:05;1.45;;;0.70;;
35893;SDS011;21994;48.204;16.516;2023-07-31T16:25:32;0.65;;;0.50;;
35893;SDS011;21994;48.204;16.516;2023-07-31T16:27:58;1.75;;;0.90;;
35893;SDS011;21994;48.204;16.516;2023-07-31T16:30:24;1.15;;;0.60;;
35893;SDS011;21994;48.204;16.516;2023-07-31T16:32:50;3.13;;;0.90;;
35893;SDS011;21994;48.204;16.516;2023-07-31T16:35:17;1.23;;;0.60;;
35893;SDS011;21994;48.204;16.516;2023-07-31T16:37:43;2.40;;;1.15;;
35893;SDS011;21994;48.204;16.516;2023-07-31T16:40:11;11.57;;;8.30;;
35893;SDS011;21994;48.204;16.516;2023-07-31T16:42:38;10.20;;;5.28;;
35893;SDS011;21994;48.204;16.516;2023-07-31T16:45:05;4.85;;;2.88;;
35893;SDS011;21994;48.204;16.516;2023-07-31T16:47:33;2.65;;;1.48;;
35893;SDS011;21994;48.204;16.516;2023-07-31T16:49:59;1.90;;;1.10;;
35893;SDS011;21994;48.204;16.516;2023-07-31T16:52:24;4.57;;;1.98;;
35893;SDS011;21994;48.204;16.516;2023-07-31T16:54:52;1.70;;;1.05;;
35893;SDS011;21994;48.204;16.516;2023-07-31T16:57:18;5.03;;;3.08;;
35893;SDS011;21994;48.204;16.516;2023-07-31T16:59:44;9.00;;;4.57;;
35893;SDS011;21994;48.204;16.516;2023-07-31T17:02:10;7.22;;;4.35;;
35893;SDS011;21994;48.204;16.516;2023-07-31T17:04:36;7.18;;;4.70;;
35893;SDS011;21994;48.204;16.516;2023-07-31T17:07:02;6.93;;;3.83;;
35893;SDS011;21994;48.204;16.516;2023-07-31T17:09:28;3.50;;;1.88;;
35893;SDS011;21994;48.204;16.516;2023-07-31T17:11:54;17.55;;;7.47;;
35893;SDS011;21994;48.204;16.516;2023-07-31T17:14:20;6.10;;;3.47;;
35893;SDS011;21994;48.204;16.516;2023-07-31T17:16:46;6.15;;;2.10;;
35893;SDS011;21994;48.204;16.516;2023-07-31T17:19:12;1.38;;;0.73;;
35893;SDS011;21994;48.204;16.516;2023-07-31T17:21:39;1.77;;;0.77;;
35893;SDS011;21994;48.204;16.516;2023-07-31T17:24:05;2.22;;;1.00;;
35893;SDS011;21994;48.204;16.516;2023-07-31T17:26:31;1.08;;;0.47;;
35893;SDS011;21994;48.204;16.516;2023-07-31T17:28:57;1.25;;;0.95;;
35893;SDS011;21994;48.204;16.516;2023-07-31T17:31:25;2.55;;;0.95;;
35893;SDS011;21994;48.204;16.516;2023-07-31T17:33:51;1.02;;;0.50;;
35893;SDS011;21994;48.204;16.516;2023-07-31T17:36:18;1.95;;;0.60;;
35893;SDS011;21994;48.204;16.516;2023-07-31T17:38:43;3.03;;;0.60;;
35893;SDS011;21994;48.204;16.516;2023-07-31T17:41:10;2.75;;;0.85;;
35893;SDS011;21994;48.204;16.516;2023-07-31T17:43:36;1.77;;;0.98;;
35893;SDS011;21994;48.204;16.516;2023-07-31T17:46:02;0.85;;;0.50;;
35893;SDS011;21994;48.204;16.516;2023-07-31T17:48:29;1.15;;;0.47;;
35893;SDS011;21994;48.204;16.516;2023-07-31T17:50:55;2.47;;;0.73;;
35893;SDS011;21994;48.204;16.516;2023-07-31T17:53:21;0.73;;;0.43;;
35893;SDS011;21994;48.204;16.516;2023-07-31T17:55:47;2.80;;;0.70;;
35893;SDS011;21994;48.204;16.516;2023-07-31T17:58:13;1.58;;;0.50;;
35893;SDS011;21994;48.204;16.516;2023-07-31T18:00:40;0.77;;;0.55;;
35893;SDS011;21994;48.204;16.516;2023-07-31T18:03:06;4.18;;;0.75;;
35893;SDS011;21994;48.204;16.516;2023-07-31T18:05:35;1.23;;;0.50;;
35893;SDS011;21994;48.204;16.516;2023-07-31T18:08:01;1.10;;;0.43;;
35893;SDS011;21994;48.204;16.516;2023-07-31T18:10:27;2.08;;;0.60;;
35893;SDS011;21994;48.204;16.516;2023-07-31T18:12:54;0.63;;;0.50;;
35893;SDS011;21994;48.204;16.516;2023-07-31T18:15:20;2.67;;;0.80;;
35893;SDS011;21994;48.204;16.516;2023-07-31T18:17:46;0.95;;;0.50;;
35893;SDS011;21994;48.204;16.516;2023-07-31T18:20:12;2.13;;;0.80;;
35893;SDS011;21994;48.204;16.516;2023-07-31T18:22:38;2.33;;;1.10;;
35893;SDS011;21994;48.204;16.516;2023-07-31T18:25:04;2.35;;;1.08;;
35893;SDS011;21994;48.204;16.516;2023-07-31T18:27:31;1.40;;;0.77;;
35893;SDS011;21994;48.204;16.516;2023-07-31T18:29:57;1.00;;;0.60;;
35893;SDS011;21994;48.204;16.516;2023-07-31T18:32:23;1.77;;;0.95;;
35893;SDS011;21994;48.204;16.516;2023-07-31T18:34:49;1.95;;;0.90;;
35893;SDS011;21994;48.204;16.516;2023-07-31T18:37:14;1.63;;;0.82;;
35893;SDS011;21994;48.204;16.516;2023-07-31T18:39:40;1.67;;;0.77;;
35893;SDS011;21994;48.204;16.516;2023-07-31T18:42:06;4.43;;;1.70;;
35893;SDS011;21994;48.204;16.516;2023-07-31T18:44:33;1.65;;;0.85;;
35893;SDS011;21994;48.204;16.516;2023-07-31T18:47:00;2.55;;;0.70;;
35893;SDS011;21994;48.204;16.516;2023-07-31T18:49:27;2.30;;;1.02;;
35893;SDS011;21994;48.204;16.516;2023-07-31T18:51:53;0.90;;;0.60;;
35893;SDS011;21994;48.204;16.516;2023-07-31T18:54:19;3.05;;;0.82;;
35893;SDS011;21994;48.204;16.516;2023-07-31T18:56:45;0.65;;;0.57;;
35893;SDS011;21994;48.204;16.516;2023-07-31T18:59:11;1.10;;;0.60;;
35893;SDS011;21994;48.204;16.516;2023-07-31T19:01:38;4.10;;;0.85;;
35893;SDS011;21994;48.204;16.516;2023-07-31T19:04:05;1.98;;;0.55;;
35893;SDS011;21994;48.204;16.516;2023-07-31T19:06:32;1.33;;;0.65;;
35893;SDS011;21994;48.204;16.516;2023-07-31T19:09:00;1.30;;;0.90;;
35893;SDS011;21994;48.204;16.516;2023-07-31T19:11:26;1.50;;;0.85;;
35893;SDS011;21994;48.204;16.516;2023-07-31T19:13:52;1.85;;;1.48;;
35893;SDS011;21994;48.204;16.516;2023-07-31T19:16:18;2.60;;;0.60;;
35893;SDS011;21994;48.204;16.516;2023-07-31T19:18:47;0.80;;;0.65;;
35893;SDS011;21994;48.204;16.516;2023-07-31T19:21:18;1.45;;;0.85;;
35893;SDS011;21994;48.204;16.516;2023-07-31T19:23:46;2.00;;;1.05;;
35893;SDS011;21994;48.204;16.516;2023-07-31T19:26:30;2.47;;;0.75;;
35893;SDS011;21994;48.204;16.516;2023-07-31T19:28:59;2.47;;;1.00;;
35893;SDS011;21994;48.204;16.516;2023-07-31T19:31:30;1.98;;;0.85;;
35893;SDS011;21994;48.204;16.516;2023-07-31T19:34:25;2.67;;;0.90;;
35893;SDS011;21994;48.204;16.516;2023-07-31T19:36:54;1.60;;;0.70;;
35893;SDS011;21994;48.204;16.516;2023-07-31T19:39:22;1.95;;;0.80;;
35893;SDS011;21994;48.204;16.516;2023-07-31T19:41:48;2.42;;;1.08;;
35893;SDS011;21994;48.204;16.516;2023-07-31T19:44:14;1.13;;;0.60;;
35893;SDS011;21994;48.204;16.516;2023-07-31T19:46:43;2.28;;;0.98;;
35893;SDS011;21994;48.204;16.516;2023-07-31T19:49:12;2.72;;;0.90;;
35893;SDS011;21994;48.204;16.516;2023-07-31T19:51:44;2.20;;;1.08;;
35893;SDS011;21994;48.204;16.516;2023-07-31T19:54:21;3.00;;;1.48;;
35893;SDS011;21994;48.204;16.516;2023-07-31T19:57:11;4.55;;;1.80;;
35893;SDS011;21994;48.204;16.516;2023-07-31T19:59:48;4.95;;;2.78;;
35893;SDS011;21994;48.204;16.516;2023-07-31T20:02:27;3.78;;;2.13;;
35893;SDS011;21994;48.204;16.516;2023-07-31T20:04:55;1.83;;;1.17;;
35893;SDS011;21994;48.204;16.516;2023-07-31T20:07:21;3.42;;;1.30;;
35893;SDS011;21994;48.204;16.516;2023-07-31T20:10:05;2.30;;;1.10;;
35893;SDS011;21994;48.204;16.516;2023-07-31T20:12:40;3.28;;;1.30;;
35893;SDS011;21994;48.204;16.516;2023-07-31T20:15:18;2.30;;;1.20;;
35893;SDS011;21994;48.204;16.516;2023-07-31T20:17:59;1.67;;;1.05;;
35893;SDS011;21994;48.204;16.516;2023-07-31T20:20:42;2.63;;;1.00;;
35893;SDS011;21994;48.204;16.516;2023-07-31T20:23:16;1.38;;;0.80;;
35893;SDS011;21994;48.204;16.516;2023-07-31T20:25:55;2.55;;;1.20;;
35893;SDS011;21994;48.204;16.516;2023-07-31T20:28:26;3.88;;;1.48;;
35893;SDS011;21994;48.204;16.516;2023-07-31T20:31:04;2.38;;;1.10;;
35893;SDS011;21994;48.204;16.516;2023-07-31T20:34:03;1.98;;;1.00;;
35893;SDS011;21994;48.204;16.516;2023-07-31T20:36:44;2.55;;;1.00;;
35893;SDS011;21994;48.204;16.516;2023-07-31T20:39:56;3.78;;;1.63;;
35893;SDS011;21994;48.204;16.516;2023-07-31T20:42:27;2.58;;;0.85;;
35893;SDS011;21994;48.204;16.516;2023-07-31T20:44:59;4.88;;;0.90;;
35893;SDS011;21994;48.204;16.516;2023-07-31T20:47:30;3.38;;;1.40;;
35893;SDS011;21994;48.204;16.516;2023-07-31T20:53:26;2.22;;;1.20;;
35893;SDS011;21994;48.204;16.516;2023-07-31T20:55:53;2.50;;;1.10;;
35893;SDS011;21994;48.204;16.516;2023-07-31T20:58:22;3.30;;;1.65;;
35893;SDS011;21994;48.204;16.516;2023-07-31T21:01:05;2.50;;;1.40;;
35893;SDS011;21994;48.204;16.516;2023-07-31T21:04:20;2.97;;;0.80;;
35893;SDS011;21994;48.204;16.516;2023-07-31T21:06:58;2.20;;;1.17;;
35893;SDS011;21994;48.204;16.516;2023-07-31T21:09:36;1.73;;;1.00;;
35893;SDS011;21994;48.204;16.516;2023-07-31T21:12:13;4.05;;;1.20;;
35893;SDS011;21994;48.204;16.516;2023-07-31T21:18:03;2.67;;;1.42;;
35893;SDS011;21994;48.204;16.516;2023-07-31T21:21:06;2.55;;;1.02;;
35893;SDS011;21994;48.204;16.516;2023-07-31T21:23:34;2.53;;;1.20;;
35893;SDS011;21994;48.204;16.516;2023-07-31T21:26:48;1.75;;;1.20;;
35893;SDS011;21994;48.204;16.516;2023-07-31T21:29:19;1.83;;;1.25;;
35893;SDS011;21994;48.204;16.516;2023-07-31T21:31:45;2.10;;;1.20;;
35893;SDS011;21994;48.204;16.516;2023-07-31T21:34:14;1.90;;;1.17;;
35893;SDS011;21994;48.204;16.516;2023-07-31T21:36:51;2.33;;;1.25;;
35893;SDS011;21994;48.204;16.516;2023-07-31T21:39:28;2.17;;;1.20;;
35893;SDS011;21994;48.204;16.516;2023-07-31T21:42:06;2.88;;;1.23;;
35893;SDS011;21994;48.204;16.516;2023-07-31T21:45:22;2.08;;;1.25;;
35893;SDS011;21994;48.204;16.516;2023-07-31T21:48:23;2.42;;;1.05;;
35893;SDS011;21994;48.204;16.516;2023-07-31T21:51:36;2.17;;;0.88;;
35893;SDS011;21994;48.204;16.516;2023-07-31T21:58:26;3.88;;;1.58;;
35893;SDS011;21994;48.204;16.516;2023-07-31T22:01:03;3.22;;;1.48;;
35893;SDS011;21994;48.204;16.516;2023-07-31T22:06:49;2.70;;;1.27;;
35893;SDS011;21994;48.204;16.516;2023-07-31T22:09:58;3.03;;;1.48;;
35893;SDS011;21994;48.204;16.516;2023-07-31T22:12:52;2.13;;;1.25;;
35893;SDS011;21994;48.204;16.516;2023-07-31T22:18:45;1.77;;;0.93;;
35893;SDS011;21994;48.204;16.516;2023-07-31T22:21:44;2.95;;;1.90;;
35893;SDS011;21994;48.204;16.516;2023-07-31T22:27:28;2.05;;;1.30;;
35893;SDS011;21994;48.204;16.516;2023-07-31T22:30:47;2.03;;;1.10;;
35893;SDS011;21994;48.204;16.516;2023-07-31T22:33:45;2.72;;;1.23;;
35893;SDS011;21994;48.204;16.516;2023-07-31T22:36:34;2.50;;;1.63;;
35893;SDS011;21994;48.204;16.516;2023-07-31T22:39:10;2.60;;;1.42;;
35893;SDS011;21994;48.204;16.516;2023-07-31T22:41:48;3.60;;;1.40;;
35893;SDS011;21994;48.204;16.516;2023-07-31T22:44:14;1.98;;;1.10;;
35893;SDS011;21994;48.204;16.516;2023-07-31T22:46:48;3.55;;;1.25;;
35893;SDS011;21994;48.204;16.516;2023-07-31T22:49:25;2.92;;;1.27;;
35893;SDS011;21994;48.204;16.516;2023-07-31T22:51:54;2.38;;;1.50;;
35893;SDS011;21994;48.204;16.516;2023-07-31T22:54:20;2.63;;;1.52;;
35893;SDS011;21994;48.204;16.516;2023-07-31T22:56:46;3.35;;;1.23;;
35893;SDS011;21994;48.204;16.516;2023-07-31T22:59:12;2.22;;;1.10;;
35893;SDS011;21994;48.204;16.516;2023-07-31T23:01:38;2.33;;;1.48;;
35893;SDS011;21994;48.204;16.516;2023-07-31T23:04:04;3.88;;;1.50;;
35893;SDS011;21994;48.204;16.516;2023-07-31T23:06:30;4.38;;;2.05;;
35893;SDS011;21994;48.204;16.516;2023-07-31T23:08:56;2.83;;;0.98;;
35893;SDS011;21994;48.204;16.516;2023-07-31T23:11:22;1.38;;;1.13;;
35893;SDS011;21994;48.204;16.516;2023-07-31T23:13:48;3.22;;;1.55;;
35893;SDS011;21994;48.204;16.516;2023-07-31T23:16:13;3.47;;;1.23;;
35893;SDS011;21994;48.204;16.516;2023-07-31T23:18:39;2.53;;;1.38;;
